Time;durP1;ratioP1;P1;durP2;ratioP2;P2;SDS_P1;SDS_P2;PMS_P1;PMS_P2;Temp;Humidity;BMP_temperature;BMP_pressure;BME280_temperature;BME280_humidity;BME280_pressure;Samples;Min_cycle;Max_cycle;Signal;HPM_P1;HPM_P2
2023/03/13 00:01:23;;;;;;;1.00;1.00;;;;;;;;;;4931596;28;20941;-84
2023/03/13 00:03:51;;;;;;;0.90;0.90;;;;;;;;;;4959137;28;20211;-82
2023/03/13 00:06:18;;;;;;;1.00;1.00;;;;;;;;;;4937815;28;20199;-84
2023/03/13 00:08:51;;;;;;;0.90;0.90;;;;;;;;;;4938915;28;20237;-84
2023/03/13 00:11:41;;;;;;;0.90;0.90;;;;;;;;;;4950556;28;20222;-84
2023/03/13 00:14:20;;;;;;;1.00;1.00;;;;;;;;;;4972486;28;20199;-81
2023/03/13 00:16:52;;;;;;;0.80;0.80;;;;;;;;;;4967993;28;20197;-84
2023/03/13 00:19:44;;;;;;;0.90;0.90;;;;;;;;;;4943214;28;20317;-83
2023/03/13 00:22:20;;;;;;;;;;;;;;;;;;;;;
2023/03/13 00:24:50;;;;;;;0.87;0.87;;;;;;;;;;4964773;28;20216;-83
2023/03/13 00:27:16;;;;;;;0.90;0.90;;;;;;;;;;4943660;28;20262;-83
2023/03/13 00:29:44;;;;;;;0.70;0.70;;;;;;;;;;4940708;28;20626;-84
2023/03/13 00:32:10;;;;;;;1.00;1.00;;;;;;;;;;4956316;28;20186;-83
2023/03/13 00:34:36;;;;;;;0.87;0.87;;;;;;;;;;4955580;28;21873;-84
2023/03/13 00:37:02;;;;;;;0.90;0.90;;;;;;;;;;4939525;28;20307;-85
2023/03/13 00:39:28;;;;;;;0.83;0.83;;;;;;;;;;4940285;28;20654;-83
2023/03/13 00:41:54;;;;;;;0.87;0.87;;;;;;;;;;4954064;28;20519;-82
2023/03/13 00:44:20;;;;;;;0.90;0.90;;;;;;;;;;4939924;28;20194;-82
2023/03/13 00:46:59;;;;;;;0.80;0.80;;;;;;;;;;4939507;28;20240;-83
2023/03/13 00:49:25;;;;;;;1.10;1.10;;;;;;;;;;4951253;28;20192;-84
2023/03/13 00:51:54;;;;;;;0.90;0.90;;;;;;;;;;4934485;28;20194;-82
2023/03/13 00:54:20;;;;;;;1.13;1.13;;;;;;;;;;4937473;28;20198;-82
2023/03/13 00:56:46;;;;;;;0.90;0.90;;;;;;;;;;4955716;28;20194;-82
2023/03/13 00:59:12;;;;;;;0.80;0.80;;;;;;;;;;4961024;28;20194;-82
2023/03/13 01:01:53;;;;;;;0.80;0.80;;;;;;;;;;4947034;28;20202;-82
2023/03/13 01:04:19;;;;;;;0.93;0.93;;;;;;;;;;4954713;28;20624;-85
2023/03/13 01:06:45;;;;;;;0.80;0.80;;;;;;;;;;4940945;28;20238;-83
2023/03/13 01:09:16;;;;;;;0.80;0.80;;;;;;;;;;4944810;28;20309;-84
2023/03/13 01:11:43;;;;;;;0.80;0.80;;;;;;;;;;4944276;28;20222;-86
2023/03/13 01:14:15;;;;;;;0.80;0.80;;;;;;;;;;4958474;28;20197;-85
2023/03/13 01:17:04;;;;;;;0.90;0.90;;;;;;;;;;4942137;28;20186;-84
2023/03/13 01:19:32;;;;;;;0.80;0.80;;;;;;;;;;4957440;28;20189;-83
2023/03/13 01:21:58;;;;;;;1.00;1.00;;;;;;;;;;4950778;28;20233;-85
2023/03/13 01:24:25;;;;;;;0.80;0.80;;;;;;;;;;4962322;28;20240;-85
2023/03/13 01:26:51;;;;;;;1.20;1.20;;;;;;;;;;4967018;28;20273;-83
2023/03/13 01:29:17;;;;;;;0.90;0.90;;;;;;;;;;4961648;28;20293;-83
2023/03/13 01:31:43;;;;;;;0.80;0.80;;;;;;;;;;4957529;28;20490;-82
2023/03/13 01:34:09;;;;;;;0.80;0.80;;;;;;;;;;4939621;28;20190;-83
2023/03/13 01:36:49;;;;;;;0.80;0.80;;;;;;;;;;4939022;28;20772;-83
2023/03/13 01:39:15;;;;;;;0.90;0.90;;;;;;;;;;4951337;28;20217;-83
2023/03/13 01:41:41;;;;;;;0.90;0.90;;;;;;;;;;4949058;28;20213;-81
2023/03/13 01:44:15;;;;;;;0.77;0.77;;;;;;;;;;4936669;28;20199;-81
2023/03/13 01:46:41;;;;;;;0.80;0.80;;;;;;;;;;4931368;28;20190;-83
2023/03/13 01:49:17;;;;;;;0.90;0.90;;;;;;;;;;4927773;28;20225;-82
2023/03/13 01:51:49;;;;;;;0.70;0.70;;;;;;;;;;4946700;28;20217;-82
2023/03/13 01:54:22;;;;;;;0.80;0.80;;;;;;;;;;4953328;28;20197;-82
2023/03/13 01:56:53;;;;;;;0.93;0.93;;;;;;;;;;4941892;28;20194;-84
2023/03/13 01:59:27;;;;;;;0.87;0.87;;;;;;;;;;4932360;28;20206;-84
2023/03/13 02:01:59;;;;;;;0.90;0.90;;;;;;;;;;4944767;28;20243;-87
2023/03/13 02:06:55;;;;;;;0.80;0.80;;;;;;;;;;4944991;28;20676;-55
2023/03/13 02:09:22;;;;;;;1.00;1.00;;;;;;;;;;4919218;28;20263;-56
2023/03/13 02:12:04;;;;;;;0.90;0.90;;;;;;;;;;4938243;28;20231;-56
2023/03/13 02:14:32;;;;;;;0.90;0.90;;;;;;;;;;4934039;28;20209;-56
2023/03/13 02:16:58;;;;;;;0.90;0.90;;;;;;;;;;4918886;28;20326;-55
2023/03/13 02:19:27;;;;;;;0.93;0.93;;;;;;;;;;4918162;28;20195;-55
2023/03/13 02:22:05;;;;;;;0.90;0.90;;;;;;;;;;4944376;28;20217;-55
2023/03/13 02:24:33;;;;;;;1.00;1.00;;;;;;;;;;4949207;28;20219;-55
2023/03/13 02:26:58;;;;;;;0.70;0.70;;;;;;;;;;4935569;28;20191;-55
2023/03/13 02:29:24;;;;;;;1.17;1.17;;;;;;;;;;4942542;28;20209;-55
2023/03/13 02:31:50;;;;;;;0.90;0.90;;;;;;;;;;4937963;28;20444;-56
2023/03/13 02:34:18;;;;;;;0.90;0.90;;;;;;;;;;4939300;28;20528;-56
2023/03/13 02:36:44;;;;;;;1.00;1.00;;;;;;;;;;4941779;28;20292;-55
2023/03/13 02:39:11;;;;;;;0.90;0.90;;;;;;;;;;4946084;28;20318;-54
2023/03/13 02:41:36;;;;;;;0.90;0.90;;;;;;;;;;4914481;28;20999;-54
2023/03/13 02:44:04;;;;;;;1.00;1.00;;;;;;;;;;4939373;28;20306;-54
2023/03/13 02:46:31;;;;;;;0.80;0.80;;;;;;;;;;4932768;28;20210;-55
2023/03/13 02:48:58;;;;;;;0.83;0.83;;;;;;;;;;4937364;28;20209;-54
2023/03/13 02:51:24;;;;;;;0.80;0.80;;;;;;;;;;4938878;28;20210;-55
2023/03/13 02:53:50;;;;;;;1.10;1.10;;;;;;;;;;4951286;28;20230;-54
2023/03/13 02:56:17;;;;;;;1.00;1.00;;;;;;;;;;4924758;28;20873;-55
2023/03/13 02:58:43;;;;;;;0.80;0.80;;;;;;;;;;4943254;28;20639;-54
2023/03/13 03:01:09;;;;;;;0.90;0.90;;;;;;;;;;4937560;28;20206;-54
2023/03/13 03:03:35;;;;;;;0.80;0.80;;;;;;;;;;4937406;28;20201;-54
2023/03/13 03:06:02;;;;;;;0.70;0.70;;;;;;;;;;4933263;28;20231;-55
2023/03/13 03:08:27;;;;;;;0.83;0.83;;;;;;;;;;4946247;28;20557;-55
2023/03/13 03:10:53;;;;;;;0.80;0.80;;;;;;;;;;4944737;28;20212;-54
2023/03/13 03:13:19;;;;;;;1.10;1.10;;;;;;;;;;4949828;28;20605;-54
2023/03/13 03:15:45;;;;;;;0.80;0.80;;;;;;;;;;4946656;28;20718;-55
2023/03/13 03:18:11;;;;;;;0.80;0.80;;;;;;;;;;4950975;28;20184;-55
2023/03/13 03:20:37;;;;;;;0.80;0.80;;;;;;;;;;4951113;28;20187;-54
2023/03/13 03:23:03;;;;;;;0.80;0.80;;;;;;;;;;4950280;28;20198;-54
2023/03/13 03:25:29;;;;;;;0.80;0.80;;;;;;;;;;4935273;28;20191;-55
2023/03/13 03:27:55;;;;;;;0.80;0.80;;;;;;;;;;4949474;28;20278;-55
2023/03/13 03:30:21;;;;;;;1.00;1.00;;;;;;;;;;4944249;28;20233;-55
2023/03/13 03:32:47;;;;;;;0.80;0.80;;;;;;;;;;4951201;28;20194;-54
2023/03/13 03:35:13;;;;;;;0.90;0.90;;;;;;;;;;4943541;28;20660;-55
2023/03/13 03:37:39;;;;;;;0.80;0.80;;;;;;;;;;4939763;28;20792;-56
2023/03/13 03:40:05;;;;;;;0.87;0.87;;;;;;;;;;4943041;28;20195;-55
2023/03/13 03:42:31;;;;;;;0.80;0.80;;;;;;;;;;4947325;28;20340;-54
2023/03/13 03:44:57;;;;;;;1.03;1.03;;;;;;;;;;4930639;28;20292;-55
2023/03/13 03:47:23;;;;;;;0.90;0.90;;;;;;;;;;4950985;28;20196;-55
2023/03/13 03:49:49;;;;;;;0.90;0.90;;;;;;;;;;4940610;28;20520;-54
2023/03/13 03:52:16;;;;;;;0.90;0.90;;;;;;;;;;4944620;28;20277;-54
2023/03/13 03:54:42;;;;;;;1.10;1.10;;;;;;;;;;4955434;28;20187;-55
2023/03/13 03:57:08;;;;;;;0.70;0.70;;;;;;;;;;4957390;28;20191;-55
2023/03/13 03:59:33;;;;;;;1.00;1.00;;;;;;;;;;4941946;28;20213;-55
2023/03/13 04:01:59;;;;;;;1.07;1.07;;;;;;;;;;4961530;28;20672;-54
2023/03/13 04:04:25;;;;;;;1.00;1.00;;;;;;;;;;4964309;28;20652;-55
2023/03/13 04:06:51;;;;;;;0.87;0.87;;;;;;;;;;4956373;28;20770;-55
2023/03/13 04:09:17;;;;;;;1.07;1.07;;;;;;;;;;4954338;28;20196;-55
2023/03/13 04:11:43;;;;;;;1.07;1.07;;;;;;;;;;4948764;28;20252;-54
2023/03/13 04:14:09;;;;;;;0.80;0.80;;;;;;;;;;4944986;28;20286;-55
2023/03/13 04:16:35;;;;;;;0.90;0.90;;;;;;;;;;4942146;28;20215;-55
2023/03/13 04:19:01;;;;;;;0.80;0.80;;;;;;;;;;4946514;28;20192;-54
2023/03/13 04:21:27;;;;;;;0.80;0.80;;;;;;;;;;4945449;28;20206;-55
2023/03/13 04:23:53;;;;;;;0.70;0.70;;;;;;;;;;4932183;28;20276;-55
2023/03/13 04:26:19;;;;;;;0.90;0.90;;;;;;;;;;4949368;28;20482;-55
2023/03/13 04:28:45;;;;;;;0.90;0.90;;;;;;;;;;4957761;28;20187;-56
2023/03/13 04:31:11;;;;;;;0.80;0.80;;;;;;;;;;4946434;28;20207;-55
2023/03/13 04:33:37;;;;;;;0.90;0.90;;;;;;;;;;4947955;28;22049;-56
2023/03/13 04:36:03;;;;;;;0.80;0.80;;;;;;;;;;4952517;28;20190;-56
2023/03/13 04:38:29;;;;;;;1.00;1.00;;;;;;;;;;4946522;28;20248;-55
2023/03/13 04:40:55;;;;;;;0.80;0.80;;;;;;;;;;4948374;28;20204;-55
2023/03/13 04:43:21;;;;;;;0.90;0.90;;;;;;;;;;4947724;28;20195;-55
2023/03/13 04:45:46;;;;;;;0.90;0.90;;;;;;;;;;4944801;28;20770;-55
2023/03/13 04:48:13;;;;;;;1.00;1.00;;;;;;;;;;4957474;28;20222;-55
2023/03/13 04:50:39;;;;;;;0.80;0.80;;;;;;;;;;4952215;28;20226;-55
2023/03/13 04:53:05;;;;;;;0.97;0.97;;;;;;;;;;4953334;28;20202;-55
2023/03/13 04:55:31;;;;;;;0.80;0.80;;;;;;;;;;4954323;28;20215;-54
2023/03/13 04:57:57;;;;;;;1.00;1.00;;;;;;;;;;4956936;28;20219;-55
2023/03/13 05:00:23;;;;;;;0.90;0.90;;;;;;;;;;4953741;28;20350;-55
2023/03/13 05:02:49;;;;;;;0.70;0.70;;;;;;;;;;4950663;28;20784;-55
2023/03/13 05:05:14;;;;;;;0.80;0.80;;;;;;;;;;4950134;28;20234;-55
2023/03/13 05:07:40;;;;;;;0.80;0.80;;;;;;;;;;4950911;28;20203;-55
2023/03/13 05:10:06;;;;;;;1.00;1.00;;;;;;;;;;4956180;28;20471;-56
2023/03/13 05:12:32;;;;;;;0.73;0.73;;;;;;;;;;4953778;28;20226;-55
2023/03/13 05:14:58;;;;;;;1.00;1.00;;;;;;;;;;4946407;28;21107;-55
2023/03/13 05:17:24;;;;;;;0.93;0.93;;;;;;;;;;4949442;28;20253;-55
2023/03/13 05:19:50;;;;;;;0.90;0.90;;;;;;;;;;4947741;28;20191;-55
2023/03/13 05:22:16;;;;;;;0.97;0.97;;;;;;;;;;4942348;28;20191;-55
2023/03/13 05:24:42;;;;;;;0.90;0.90;;;;;;;;;;4944457;28;20203;-55
2023/03/13 05:27:08;;;;;;;0.90;0.90;;;;;;;;;;4938061;28;20198;-55
2023/03/13 05:29:34;;;;;;;1.00;1.00;;;;;;;;;;4936236;28;20266;-55
2023/03/13 05:32:00;;;;;;;0.90;0.90;;;;;;;;;;4939942;28;20729;-55
2023/03/13 05:34:26;;;;;;;0.80;0.80;;;;;;;;;;4946360;28;20601;-56
2023/03/13 05:36:52;;;;;;;1.10;1.10;;;;;;;;;;4944034;28;20195;-55
2023/03/13 05:39:18;;;;;;;0.90;0.90;;;;;;;;;;4935876;28;20243;-55
2023/03/13 05:41:44;;;;;;;0.80;0.80;;;;;;;;;;4937581;28;20199;-55
2023/03/13 05:44:10;;;;;;;0.90;0.90;;;;;;;;;;4937051;28;20199;-55
2023/03/13 05:46:36;;;;;;;1.00;1.00;;;;;;;;;;4938011;28;20196;-55
2023/03/13 05:49:02;;;;;;;0.80;0.80;;;;;;;;;;4946305;28;20191;-55
2023/03/13 05:51:28;;;;;;;1.10;1.10;;;;;;;;;;4935628;28;20219;-55
2023/03/13 05:53:53;;;;;;;0.90;0.90;;;;;;;;;;4915373;28;20191;-56
2023/03/13 05:56:19;;;;;;;0.80;0.80;;;;;;;;;;4939296;28;20199;-55
2023/03/13 05:58:45;;;;;;;1.00;1.00;;;;;;;;;;4940853;28;20200;-55
2023/03/13 06:01:12;;;;;;;1.00;1.00;;;;;;;;;;4943780;28;20191;-57
2023/03/13 06:03:38;;;;;;;0.80;0.80;;;;;;;;;;4948796;28;20277;-55
2023/03/13 06:06:04;;;;;;;1.00;1.00;;;;;;;;;;4943480;28;20835;-55
2023/03/13 06:08:31;;;;;;;0.70;0.70;;;;;;;;;;4936576;28;20210;-55
2023/03/13 06:11:00;;;;;;;0.97;0.97;;;;;;;;;;4927883;28;20709;-55
2023/03/13 06:13:26;;;;;;;0.90;0.90;;;;;;;;;;4938496;28;20206;-55
2023/03/13 06:15:56;;;;;;;0.90;0.90;;;;;;;;;;4928764;28;20202;-54
2023/03/13 06:18:22;;;;;;;0.93;0.93;;;;;;;;;;4930602;28;20763;-59
2023/03/13 06:20:48;;;;;;;1.10;1.10;;;;;;;;;;4916414;28;20199;-56
2023/03/13 06:23:14;;;;;;;1.10;1.10;;;;;;;;;;4945410;28;20223;-53
2023/03/13 06:25:40;;;;;;;0.80;0.80;;;;;;;;;;4943457;28;20825;-54
2023/03/13 06:28:07;;;;;;;1.00;1.00;;;;;;;;;;4946071;28;20187;-53
2023/03/13 06:30:32;;;;;;;0.90;0.90;;;;;;;;;;4951117;28;20779;-54
2023/03/13 06:32:58;;;;;;;0.90;0.90;;;;;;;;;;4956140;28;20215;-54
2023/03/13 06:35:24;;;;;;;0.80;0.80;;;;;;;;;;4955063;28;20186;-54
2023/03/13 06:37:50;;;;;;;1.00;1.00;;;;;;;;;;4955133;28;20186;-53
2023/03/13 06:40:16;;;;;;;0.80;0.80;;;;;;;;;;4956015;28;20191;-53
2023/03/13 06:42:42;;;;;;;0.80;0.80;;;;;;;;;;4939951;28;20200;-53
2023/03/13 06:45:09;;;;;;;0.90;0.90;;;;;;;;;;4954369;28;20197;-53
2023/03/13 06:47:34;;;;;;;0.80;0.80;;;;;;;;;;4955380;28;20198;-54
2023/03/13 06:50:00;;;;;;;0.87;0.87;;;;;;;;;;4941409;28;20191;-53
2023/03/13 06:52:26;;;;;;;0.80;0.80;;;;;;;;;;4955088;28;20192;-54
2023/03/13 06:54:52;;;;;;;0.80;0.80;;;;;;;;;;4954942;28;20289;-53
2023/03/13 06:57:18;;;;;;;0.90;0.90;;;;;;;;;;4955496;28;20711;-54
2023/03/13 06:59:44;;;;;;;0.90;0.90;;;;;;;;;;4943599;28;20562;-54
2023/03/13 07:02:11;;;;;;;0.70;0.70;;;;;;;;;;4963618;28;20249;-53
2023/03/13 07:04:37;;;;;;;0.70;0.70;;;;;;;;;;4957248;28;20206;-54
2023/03/13 07:07:03;;;;;;;0.97;0.97;;;;;;;;;;4958098;28;20186;-54
2023/03/13 07:09:29;;;;;;;0.80;0.80;;;;;;;;;;4946792;28;20667;-54
2023/03/13 07:11:56;;;;;;;0.90;0.90;;;;;;;;;;4957232;28;20227;-53
2023/03/13 07:14:22;;;;;;;0.90;0.90;;;;;;;;;;4934104;28;20183;-54
2023/03/13 07:16:48;;;;;;;0.80;0.80;;;;;;;;;;4952508;28;20551;-54
2023/03/13 07:19:14;;;;;;;0.90;0.90;;;;;;;;;;4943143;28;20750;-54
2023/03/13 07:21:40;;;;;;;1.00;1.00;;;;;;;;;;4954254;28;20653;-54
2023/03/13 07:24:07;;;;;;;0.70;0.70;;;;;;;;;;4956827;28;20219;-53
2023/03/13 07:26:32;;;;;;;0.80;0.80;;;;;;;;;;4955802;28;20576;-54
2023/03/13 07:28:58;;;;;;;0.70;0.70;;;;;;;;;;4953237;28;20203;-54
2023/03/13 07:31:25;;;;;;;0.70;0.70;;;;;;;;;;4955556;28;20215;-54
2023/03/13 07:33:51;;;;;;;0.83;0.83;;;;;;;;;;4963955;28;20206;-53
2023/03/13 07:36:17;;;;;;;0.80;0.80;;;;;;;;;;4959625;28;20202;-54
2023/03/13 07:38:46;;;;;;;0.80;0.80;;;;;;;;;;4963711;28;20184;-54
2023/03/13 07:41:12;;;;;;;0.80;0.80;;;;;;;;;;4958511;28;20556;-54
2023/03/13 07:43:38;;;;;;;0.80;0.80;;;;;;;;;;4960911;28;20199;-54
2023/03/13 07:46:04;;;;;;;0.80;0.80;;;;;;;;;;4954260;28;20644;-54
2023/03/13 07:48:37;;;;;;;1.00;1.00;;;;;;;;;;4959131;28;20796;-54
2023/03/13 07:51:07;;;;;;;0.90;0.90;;;;;;;;;;4963743;28;20209;-54
2023/03/13 07:53:33;;;;;;;0.90;0.90;;;;;;;;;;4958547;28;20187;-54
2023/03/13 07:56:00;;;;;;;0.70;0.70;;;;;;;;;;4956598;28;20207;-54
2023/03/13 07:58:27;;;;;;;0.83;0.83;;;;;;;;;;4961244;28;20261;-53
2023/03/13 08:00:53;;;;;;;0.87;0.87;;;;;;;;;;4960105;28;20963;-54
2023/03/13 08:03:19;;;;;;;0.70;0.70;;;;;;;;;;4958990;28;20203;-54
2023/03/13 08:05:45;;;;;;;0.77;0.77;;;;;;;;;;4963769;28;20262;-54
2023/03/13 08:08:11;;;;;;;0.70;0.70;;;;;;;;;;4964427;28;20203;-54
2023/03/13 08:10:37;;;;;;;0.70;0.70;;;;;;;;;;4960370;28;20230;-54
2023/03/13 08:13:03;;;;;;;0.70;0.70;;;;;;;;;;4958431;28;20192;-54
2023/03/13 08:15:29;;;;;;;0.70;0.70;;;;;;;;;;4960553;28;20206;-54
2023/03/13 08:17:56;;;;;;;0.80;0.80;;;;;;;;;;4962832;28;20183;-54
2023/03/13 08:20:21;;;;;;;0.70;0.70;;;;;;;;;;4958730;28;20192;-54
2023/03/13 08:22:49;;;;;;;0.80;0.80;;;;;;;;;;4942844;28;20210;-54
2023/03/13 08:25:15;;;;;;;0.90;0.90;;;;;;;;;;4961233;28;20675;-54
2023/03/13 08:27:41;;;;;;;0.70;0.70;;;;;;;;;;4946873;28;20202;-54
2023/03/13 08:30:07;;;;;;;0.80;0.80;;;;;;;;;;4960739;28;20199;-54
2023/03/13 08:32:33;;;;;;;0.80;0.80;;;;;;;;;;4961162;28;20274;-54
2023/03/13 08:34:59;;;;;;;0.80;0.80;;;;;;;;;;4959098;28;20258;-54
2023/03/13 08:37:25;;;;;;;0.80;0.80;;;;;;;;;;4960052;28;20270;-54
2023/03/13 08:39:55;;;;;;;0.80;0.80;;;;;;;;;;4958639;28;20282;-54
2023/03/13 08:42:20;;;;;;;0.73;0.73;;;;;;;;;;4961471;28;20219;-54
2023/03/13 08:44:46;;;;;;;0.70;0.70;;;;;;;;;;4960377;28;20278;-53
2023/03/13 08:47:12;;;;;;;0.80;0.80;;;;;;;;;;4960662;28;20598;-54
2023/03/13 08:49:38;;;;;;;0.80;0.80;;;;;;;;;;4959692;28;20689;-54
2023/03/13 08:52:05;;;;;;;0.80;0.80;;;;;;;;;;4963644;28;20246;-54
2023/03/13 08:54:31;;;;;;;0.80;0.80;;;;;;;;;;4959861;28;20191;-54
2023/03/13 08:56:58;;;;;;;0.70;0.70;;;;;;;;;;4959784;28;20266;-53
2023/03/13 08:59:24;;;;;;;0.80;0.80;;;;;;;;;;4960816;28;20191;-54
2023/03/13 09:01:50;;;;;;;0.70;0.70;;;;;;;;;;4960455;28;20611;-53
2023/03/13 09:04:16;;;;;;;0.80;0.80;;;;;;;;;;4943502;28;20994;-54
2023/03/13 09:06:42;;;;;;;0.90;0.90;;;;;;;;;;4958237;28;20575;-54
2023/03/13 09:09:08;;;;;;;0.80;0.80;;;;;;;;;;4958041;28;20202;-53
2023/03/13 09:11:35;;;;;;;0.70;0.70;;;;;;;;;;4957872;28;20217;-54
2023/03/13 09:14:01;;;;;;;0.80;0.80;;;;;;;;;;4958362;28;20544;-53
2023/03/13 09:16:28;;;;;;;0.70;0.70;;;;;;;;;;4957843;28;20392;-53
2023/03/13 09:18:54;;;;;;;0.80;0.80;;;;;;;;;;4961403;28;20183;-53
2023/03/13 09:21:20;;;;;;;0.80;0.80;;;;;;;;;;4960218;28;20193;-53
2023/03/13 09:23:46;;;;;;;0.80;0.80;;;;;;;;;;4959433;28;20222;-53
2023/03/13 09:26:12;;;;;;;0.90;0.90;;;;;;;;;;4962376;28;20266;-53
2023/03/13 09:28:40;;;;;;;0.80;0.80;;;;;;;;;;4959507;28;20196;-54
2023/03/13 09:31:16;;;;;;;0.80;0.80;;;;;;;;;;4955286;28;20226;-53
2023/03/13 09:33:43;;;;;;;1.00;1.00;;;;;;;;;;4959968;28;20186;-54
2023/03/13 09:36:09;;;;;;;1.00;1.00;;;;;;;;;;4957286;28;20682;-54
2023/03/13 09:38:35;;;;;;;0.80;0.80;;;;;;;;;;4958444;28;20192;-54
2023/03/13 09:41:21;;;;;;;1.90;1.80;;;;;;;;;;4956237;28;20195;-53
2023/03/13 09:43:49;;;;;;;1.40;1.40;;;;;;;;;;4947617;28;20214;-54
2023/03/13 09:46:18;;;;;;;0.70;0.70;;;;;;;;;;4947614;28;20191;-54
2023/03/13 09:48:48;;;;;;;0.70;0.70;;;;;;;;;;4956535;28;20192;-54
2023/03/13 09:51:21;;;;;;;0.70;0.70;;;;;;;;;;4957421;28;20241;-54
2023/03/13 09:53:50;;;;;;;10.60;9.93;;;;;;;;;;4942154;28;20186;-54
2023/03/13 09:56:16;;;;;;;0.80;0.80;;;;;;;;;;4940753;28;20270;-53
2023/03/13 09:58:51;;;;;;;0.90;0.90;;;;;;;;;;4954448;28;20187;-54
2023/03/13 10:01:17;;;;;;;1.60;1.60;;;;;;;;;;4956914;28;20381;-55
2023/03/13 10:03:55;;;;;;;1.50;1.50;;;;;;;;;;4937495;28;20197;-55
2023/03/13 10:06:23;;;;;;;0.73;0.73;;;;;;;;;;4943579;28;20239;-54
2023/03/13 10:08:49;;;;;;;0.90;0.90;;;;;;;;;;4958838;28;20261;-54
2023/03/13 10:11:31;;;;;;;0.83;0.83;;;;;;;;;;4955888;28;20249;-53
2023/03/13 10:14:09;;;;;;;0.70;0.70;;;;;;;;;;4954073;28;20715;-55
2023/03/13 10:16:40;;;;;;;1.00;1.00;;;;;;;;;;4954665;28;20188;-55
2023/03/13 10:19:17;;;;;;;0.80;0.80;;;;;;;;;;4956810;28;20891;-54
2023/03/13 10:21:43;;;;;;;1.30;1.30;;;;;;;;;;4954642;28;20253;-54
2023/03/13 10:24:27;;;;;;;0.70;0.70;;;;;;;;;;4958127;28;20645;-54
2023/03/13 10:26:53;;;;;;;0.77;0.77;;;;;;;;;;4956718;28;20214;-55
2023/03/13 10:29:23;;;;;;;0.90;0.90;;;;;;;;;;4944677;28;20229;-54
2023/03/13 10:31:54;;;;;;;1.10;1.10;;;;;;;;;;4954321;28;20282;-54
2023/03/13 10:34:20;;;;;;;1.10;1.10;;;;;;;;;;4943538;28;20220;-54
2023/03/13 10:36:47;;;;;;;1.00;1.00;;;;;;;;;;4958537;28;20711;-54
2023/03/13 10:39:17;;;;;;;1.10;1.10;;;;;;;;;;4958299;28;20225;-54
2023/03/13 10:41:43;;;;;;;1.10;1.10;;;;;;;;;;4955662;28;20680;-54
2023/03/13 10:44:15;;;;;;;0.82;0.82;;;;;;;;;;4960258;28;20222;-54
2023/03/13 10:46:42;;;;;;;1.05;1.05;;;;;;;;;;4953026;28;20281;-54
2023/03/13 10:49:21;;;;;;;1.10;1.10;;;;;;;;;;4958280;28;20766;-54
2023/03/13 10:51:48;;;;;;;1.17;1.17;;;;;;;;;;4955860;28;20245;-55
2023/03/13 10:54:23;;;;;;;0.90;0.90;;;;;;;;;;4955840;28;20198;-54
2023/03/13 10:56:50;;;;;;;0.65;0.65;;;;;;;;;;4960329;28;20265;-55
2023/03/13 10:59:20;;;;;;;0.73;0.73;;;;;;;;;;4952769;28;20199;-55
2023/03/13 11:01:46;;;;;;;0.70;0.70;;;;;;;;;;4938844;28;20190;-54
2023/03/13 11:04:28;;;;;;;0.98;0.98;;;;;;;;;;4951160;28;21533;-55
2023/03/13 11:06:57;;;;;;;0.90;0.90;;;;;;;;;;4958282;28;20230;-54
2023/03/13 11:09:25;;;;;;;0.80;0.80;;;;;;;;;;4960462;28;20636;-54
2023/03/13 11:11:55;;;;;;;0.73;0.73;;;;;;;;;;4959186;28;20203;-55
2023/03/13 11:14:22;;;;;;;0.70;0.70;;;;;;;;;;4961711;28;20647;-54
2023/03/13 11:16:51;;;;;;;0.70;0.70;;;;;;;;;;4961029;28;20269;-54
2023/03/13 11:19:27;;;;;;;0.77;0.77;;;;;;;;;;4939316;28;20744;-55
2023/03/13 11:22:05;;;;;;;0.70;0.70;;;;;;;;;;4963051;28;20255;-54
2023/03/13 11:24:31;;;;;;;0.70;0.70;;;;;;;;;;4957642;28;20218;-54
2023/03/13 11:27:06;;;;;;;0.70;0.70;;;;;;;;;;4960680;28;20662;-55
2023/03/13 11:29:35;;;;;;;1.00;1.00;;;;;;;;;;4960211;28;20550;-54
2023/03/13 11:32:02;;;;;;;1.10;1.10;;;;;;;;;;4956753;28;20222;-54
2023/03/13 11:34:42;;;;;;;1.00;1.00;;;;;;;;;;4957935;28;20663;-55
2023/03/13 11:37:09;;;;;;;0.90;0.90;;;;;;;;;;4958780;28;20186;-54
2023/03/13 11:39:43;;;;;;;1.00;1.00;;;;;;;;;;4963742;28;20195;-55
2023/03/13 11:42:27;;;;;;;1.00;1.00;;;;;;;;;;4956510;28;20269;-54
2023/03/13 11:44:58;;;;;;;1.10;1.10;;;;;;;;;;4951857;28;20249;-55
2023/03/13 11:47:43;;;;;;;1.00;1.00;;;;;;;;;;4952190;28;20274;-54
2023/03/13 11:50:20;;;;;;;1.00;1.00;;;;;;;;;;4954830;28;20274;-55
2023/03/13 11:53:08;;;;;;;0.77;0.77;;;;;;;;;;4948041;28;20183;-55
2023/03/13 11:55:40;;;;;;;1.00;1.00;;;;;;;;;;4959250;28;20187;-54
2023/03/13 11:58:26;;;;;;;0.80;0.80;;;;;;;;;;4962361;28;20188;-54
2023/03/13 12:00:55;;;;;;;1.10;1.10;;;;;;;;;;4956391;28;20235;-54
2023/03/13 12:03:33;;;;;;;1.00;1.00;;;;;;;;;;4965489;28;20202;-55
2023/03/13 12:06:01;;;;;;;1.10;1.10;;;;;;;;;;4967082;28;20233;-54
2023/03/13 12:08:27;;;;;;;1.10;1.10;;;;;;;;;;4964210;28;20202;-55
2023/03/13 12:10:56;;;;;;;1.10;1.10;;;;;;;;;;4958957;28;20665;-54
2023/03/13 12:13:23;;;;;;;1.00;1.00;;;;;;;;;;4959429;28;20718;-54
2023/03/13 12:15:50;;;;;;;1.20;1.20;;;;;;;;;;4954308;28;20202;-54
2023/03/13 12:18:24;;;;;;;1.00;1.00;;;;;;;;;;4961247;28;20189;-53
2023/03/13 12:21:08;;;;;;;1.08;1.08;;;;;;;;;;4938371;28;20253;-54
2023/03/13 12:23:40;;;;;;;1.00;1.00;;;;;;;;;;4956739;28;20204;-55
2023/03/13 12:26:12;;;;;;;1.00;1.00;;;;;;;;;;4955499;28;20191;-55
2023/03/13 12:28:51;;;;;;;1.00;1.00;;;;;;;;;;4951082;28;20207;-55
2023/03/13 12:31:18;;;;;;;1.00;1.00;;;;;;;;;;4955921;28;20579;-54
2023/03/13 12:33:51;;;;;;;1.20;1.20;;;;;;;;;;4937410;28;20271;-55
2023/03/13 12:36:19;;;;;;;1.10;1.10;;;;;;;;;;4939158;28;20184;-56
2023/03/13 12:38:55;;;;;;;1.00;1.00;;;;;;;;;;4945810;28;20222;-54
2023/03/13 12:41:24;;;;;;;1.17;1.17;;;;;;;;;;4955597;28;20200;-54
2023/03/13 12:43:51;;;;;;;1.08;1.08;;;;;;;;;;4958648;28;20280;-55
2023/03/13 12:46:34;;;;;;;1.20;1.20;;;;;;;;;;4954123;28;20587;-54
2023/03/13 12:49:09;;;;;;;1.10;1.10;;;;;;;;;;4954236;28;20198;-54
2023/03/13 12:51:41;;;;;;;1.20;1.20;;;;;;;;;;4956221;28;20211;-54
2023/03/13 12:54:13;;;;;;;1.10;1.10;;;;;;;;;;4959550;28;20183;-54
2023/03/13 12:56:59;;;;;;;1.10;1.10;;;;;;;;;;4954046;28;20195;-54
2023/03/13 12:59:29;;;;;;;1.10;1.10;;;;;;;;;;4953800;28;20322;-54
2023/03/13 13:01:55;;;;;;;1.00;1.00;;;;;;;;;;4936766;28;20199;-55
2023/03/13 13:04:22;;;;;;;1.00;1.00;;;;;;;;;;4935601;28;20699;-54
2023/03/13 13:06:54;;;;;;;1.00;1.00;;;;;;;;;;4937681;28;20274;-55
2023/03/13 13:09:22;;;;;;;1.10;1.10;;;;;;;;;;4955641;28;20199;-55
2023/03/13 13:11:48;;;;;;;1.20;1.20;;;;;;;;;;4949515;28;20212;-54
2023/03/13 13:14:17;;;;;;;1.10;1.10;;;;;;;;;;4952885;28;20249;-54
2023/03/13 13:16:44;;;;;;;1.20;1.20;;;;;;;;;;4953829;28;20199;-54
2023/03/13 13:19:22;;;;;;;1.00;1.00;;;;;;;;;;4952364;28;20230;-53
2023/03/13 13:22:07;;;;;;;1.00;1.00;;;;;;;;;;4950347;28;20265;-53
2023/03/13 13:24:59;;;;;;;1.00;1.00;;;;;;;;;;4951905;28;20926;-54
2023/03/13 13:27:45;;;;;;;1.00;1.00;;;;;;;;;;4949307;28;20203;-55
2023/03/13 13:30:17;;;;;;;1.00;1.00;;;;;;;;;;4955334;28;20740;-55
2023/03/13 13:32:47;;;;;;;1.00;1.00;;;;;;;;;;4956823;28;20179;-54
2023/03/13 13:35:13;;;;;;;1.00;1.00;;;;;;;;;;4943712;28;20298;-54
2023/03/13 13:37:39;;;;;;;1.20;1.20;;;;;;;;;;4949912;28;20691;-55
2023/03/13 13:40:40;;;;;;;1.10;1.10;;;;;;;;;;4938538;28;20559;-54
2023/03/13 13:43:13;;;;;;;1.10;1.10;;;;;;;;;;4922780;29;20223;-54
2023/03/13 13:45:39;;;;;;;1.00;1.00;;;;;;;;;;4937209;28;20266;-55
2023/03/13 13:48:24;;;;;;;1.00;1.00;;;;;;;;;;4944955;28;20604;-54
2023/03/13 13:51:12;;;;;;;1.00;1.00;;;;;;;;;;4953254;28;20594;-55
2023/03/13 13:53:53;;;;;;;1.10;1.10;;;;;;;;;;4956103;28;20591;-53
2023/03/13 13:56:28;;;;;;;1.00;1.00;;;;;;;;;;4939645;28;20191;-54
2023/03/13 13:59:00;;;;;;;1.00;1.00;;;;;;;;;;4959791;28;20422;-54
2023/03/13 14:01:26;;;;;;;1.00;1.00;;;;;;;;;;4960832;28;20987;-54
2023/03/13 14:03:53;;;;;;;1.15;1.10;;;;;;;;;;4956707;28;20190;-55
2023/03/13 14:06:23;;;;;;;0.90;0.90;;;;;;;;;;4961723;28;20489;-54
2023/03/13 14:08:50;;;;;;;0.90;0.90;;;;;;;;;;4959499;28;20184;-55
2023/03/13 14:11:25;;;;;;;0.90;0.90;;;;;;;;;;4958132;28;20349;-54
2023/03/13 14:14:10;;;;;;;1.00;1.00;;;;;;;;;;4951984;28;20216;-54
2023/03/13 14:16:36;;;;;;;1.08;1.08;;;;;;;;;;4954908;28;20602;-55
2023/03/13 14:19:02;;;;;;;0.93;0.93;;;;;;;;;;4956269;28;20188;-55
2023/03/13 14:21:28;;;;;;;1.00;1.00;;;;;;;;;;4953510;28;20198;-57
2023/03/13 14:23:54;;;;;;;1.00;1.00;;;;;;;;;;4958264;28;20278;-54
2023/03/13 14:26:24;;;;;;;1.00;1.00;;;;;;;;;;4944448;28;20579;-54
2023/03/13 14:28:51;;;;;;;0.90;0.90;;;;;;;;;;4955061;28;20195;-53
2023/03/13 14:31:36;;;;;;;1.00;1.00;;;;;;;;;;4956494;28;20230;-54
2023/03/13 14:34:03;;;;;;;1.00;1.00;;;;;;;;;;4956420;28;20333;-55
2023/03/13 14:36:29;;;;;;;1.10;1.10;;;;;;;;;;4944647;28;20206;-54
2023/03/13 14:38:55;;;;;;;0.90;0.90;;;;;;;;;;4942023;28;20183;-54
2023/03/13 14:41:28;;;;;;;0.90;0.90;;;;;;;;;;4958273;28;20187;-55
2023/03/13 14:43:54;;;;;;;0.93;0.93;;;;;;;;;;4957389;28;20198;-53
2023/03/13 14:46:23;;;;;;;1.23;1.23;;;;;;;;;;4958997;28;20701;-54
2023/03/13 14:48:49;;;;;;;1.00;1.00;;;;;;;;;;4943728;28;20818;-55
2023/03/13 14:51:23;;;;;;;1.00;1.00;;;;;;;;;;4955160;28;20214;-54
2023/03/13 14:54:01;;;;;;;1.00;1.00;;;;;;;;;;4959033;28;20269;-54
2023/03/13 14:56:31;;;;;;;1.00;1.00;;;;;;;;;;4960650;28;20191;-54